Time;durP1;ratioP1;P1;durP2;ratioP2;P2;SDS_P1;SDS_P2;PMS_P1;PMS_P2;Temp;Humidity;BMP_temperature;BMP_pressure;BME280_temperature;BME280_humidity;BME280_pressure;Samples;Min_cycle;Max_cycle;Signal;HPM_P1;HPM_P2
2022/11/18 00:01:24;;;;;;;;;0.00;0.00;;;;;21.03;47.45;99587.53;5036235;28;45444;-71
2022/11/18 00:03:50;;;;;;;;;0.00;0.00;;;;;21.02;47.38;99591.22;5034817;28;45624;-71
2022/11/18 00:06:18;;;;;;;;;0.00;0.00;;;;;21.00;47.41;99595.06;5023554;28;45319;-70
2022/11/18 00:08:44;;;;;;;;;0.00;0.00;;;;;21.04;47.26;99606.88;5036062;28;46343;-71
2022/11/18 00:14:17;;;;;;;;;0.00;0.00;;;;;21.05;46.95;99608.50;5035898;28;45248;-71
2022/11/18 00:16:41;;;;;;;;;0.00;0.00;;;;;21.03;47.11;99619.28;5035748;28;45327;-71
2022/11/18 00:19:07;;;;;;;;;0.00;0.00;;;;;21.02;47.32;99622.94;5017636;28;47242;-72
2022/11/18 00:21:32;;;;;;;;;1.00;0.00;;;;;21.01;47.16;99621.31;5035425;28;45592;-72
2022/11/18 00:23:57;;;;;;;;;0.00;0.00;;;;;20.92;47.00;99609.28;5015283;28;45343;-71
2022/11/18 00:26:22;;;;;;;;;0.00;0.00;;;;;20.95;47.50;99617.63;5034720;28;49840;-72
2022/11/18 00:28:48;;;;;;;;;0.00;0.00;;;;;21.01;47.46;99623.09;5035718;28;45289;-71
2022/11/18 00:31:13;;;;;;;;;0.00;0.00;;;;;20.92;47.37;99611.94;5035287;28;45418;-71
2022/11/18 00:33:39;;;;;;;;;0.00;0.00;;;;;21.01;47.10;99637.19;5036044;28;45418;-71
2022/11/18 00:36:07;;;;;;;;;0.00;0.00;;;;;21.01;47.22;99637.19;5035538;28;45302;-71
2022/11/18 00:38:33;;;;;;;;;0.00;0.00;;;;;21.02;47.37;99638.81;5035884;28;46692;-71
2022/11/18 00:41:11;;;;;;;;;0.00;0.00;;;;;20.94;47.53;99631.03;5035652;28;45445;-70
2022/11/18 00:43:37;;;;;;;;;0.00;0.00;;;;;21.02;47.33;99644.09;5036060;28;45390;-73
2022/11/18 00:46:03;;;;;;;;;0.00;0.00;;;;;21.02;47.56;99649.41;5035665;28;45354;-70
2022/11/18 00:48:29;;;;;;;;;0.00;0.00;;;;;21.03;46.82;99655.47;5035472;28;47041;-72
2022/11/18 00:50:57;;;;;;;;;0.00;0.00;;;;;20.99;47.15;99654.22;5035157;28;45837;-71
2022/11/18 00:53:24;;;;;;;;;0.00;0.00;;;;;20.99;47.08;99655.06;5037653;28;45374;-71
2022/11/18 00:55:50;;;;;;;;;0.00;0.00;;;;;20.99;46.91;99657.69;5035573;28;45271;-71
2022/11/18 00:58:16;;;;;;;;;0.00;0.00;;;;;21.04;47.12;99651.81;5034726;28;47248;-71
2022/11/18 01:00:48;;;;;;;;;0.00;0.00;;;;;21.02;47.08;99653.88;5035570;28;45327;-71
2022/11/18 01:03:14;;;;;;;;;0.00;0.00;;;;;21.03;47.33;99660.75;5021528;28;45346;-71
2022/11/18 01:05:40;;;;;;;;;0.00;0.00;;;;;21.03;47.28;99676.63;5040007;28;45518;-71
2022/11/18 01:08:07;;;;;;;;;2.00;0.00;;;;;20.89;46.94;99655.44;5017288;28;46828;-71
2022/11/18 01:10:33;;;;;;;;;1.00;0.00;;;;;21.00;47.17;99682.31;5035162;28;45453;-71
2022/11/18 01:15:44;;;;;;;;;2.00;0.00;;;;;21.00;46.99;99704.25;5035196;28;45339;-71
2022/11/18 01:18:10;;;;;;;;;0.00;0.00;;;;;21.01;47.21;99703.28;5035038;28;47238;-71
2022/11/18 01:20:36;;;;;;;;;0.00;0.00;;;;;21.01;47.18;99705.94;5034581;28;51528;-71
2022/11/18 01:23:02;;;;;;;;;1.00;0.00;;;;;21.01;47.09;99718.31;5035382;28;45473;-71
2022/11/18 01:25:28;;;;;;;;;1.00;0.00;;;;;21.00;47.17;99709.56;5035122;28;45518;-71
2022/11/18 01:27:53;;;;;;;;;0.00;0.00;;;;;21.00;47.32;99712.19;5034810;28;47022;-71
2022/11/18 01:30:19;;;;;;;;;0.00;0.00;;;;;20.92;47.39;99699.97;5035322;28;45379;-71
2022/11/18 01:32:44;;;;;;;;;0.00;0.00;;;;;21.01;47.21;99711.22;5034957;28;45405;-71
2022/11/18 01:35:10;;;;;;;;;1.00;0.00;;;;;21.00;47.24;99714.84;5035067;28;45281;-71
2022/11/18 01:37:36;;;;;;;;;0.00;0.00;;;;;21.00;47.31;99719.34;5034872;28;46387;-71
2022/11/18 01:40:03;;;;;;;;;0.00;0.00;;;;;21.00;47.41;99716.69;5034858;28;45447;-71
2022/11/18 01:42:29;;;;;;;;;0.00;0.00;;;;;21.00;46.77;99724.63;5036383;28;45348;-72
2022/11/18 01:44:57;;;;;;;;;0.00;0.00;;;;;20.99;47.14;99729.09;5034815;28;45426;-72
2022/11/18 01:47:25;;;;;;;;;0.00;0.00;;;;;20.95;47.16;99726.03;5028408;28;46950;-70
2022/11/18 01:49:51;;;;;;;;;0.00;0.00;;;;;20.99;47.40;99737.03;5037846;28;45387;-72
2022/11/18 01:52:17;;;;;;;;;0.00;0.00;;;;;20.93;47.30;99732.53;5038077;28;45473;-72
2022/11/18 01:54:47;;;;;;;;;0.00;0.00;;;;;20.94;47.01;99748.22;5037732;28;45552;-72
2022/11/18 01:57:18;;;;;;;;;0.00;0.00;;;;;21.00;46.85;99749.22;5038072;28;46229;-70
2022/11/18 01:59:47;;;;;;;;;0.00;0.00;;;;;21.01;47.20;99747.41;5038071;28;45402;-71
2022/11/18 02:02:14;;;;;;;;;0.00;0.00;;;;;20.99;46.96;99749.44;5038154;28;45367;-71
2022/11/18 02:04:43;;;;;;;;;0.00;0.00;;;;;20.98;46.99;99756.53;5029646;28;45320;-71
2022/11/18 02:07:09;;;;;;;;;0.00;0.00;;;;;20.89;46.90;99741.88;5032465;28;45981;-69
2022/11/18 02:09:36;;;;;;;;;2.33;0.00;;;;;20.96;47.03;99754.09;5038207;28;45423;-71
2022/11/18 02:12:02;;;;;;;;;1.00;0.00;;;;;20.92;47.14;99758.16;5038123;28;45377;-70
2022/11/18 02:14:34;;;;;;;;;0.00;0.00;;;;;20.96;46.91;99759.41;5037871;28;45487;-71
2022/11/18 02:17:33;;;;;;;;;0.00;0.00;;;;;20.98;47.19;99763.66;5037309;28;47496;-72
2022/11/18 02:20:17;;;;;;;;;0.00;0.00;;;;;20.98;47.18;99764.47;5037975;28;45315;-72
2022/11/18 02:23:21;;;;;;;;;0.00;0.00;;;;;20.98;46.92;99763.66;5037547;28;45442;-71
2022/11/18 02:26:04;;;;;;;;;0.33;0.33;;;;;20.94;46.87;99761.44;5022273;28;45454;-71
2022/11/18 02:29:05;;;;;;;;;0.00;0.00;;;;;20.93;46.90;99753.69;5037788;28;46081;-71
2022/11/18 02:31:40;;;;;;;;;0.00;0.00;;;;;21.00;47.09;99765.09;5034911;28;45379;-72
2022/11/18 02:34:20;;;;;;;;;0.00;0.00;;;;;21.00;47.07;99765.09;5037768;28;45409;-71
2022/11/18 02:36:54;;;;;;;;;0.00;0.00;;;;;20.99;47.17;99760.81;5017843;28;45286;-69
2022/11/18 02:39:28;;;;;;;;;0.00;0.00;;;;;20.96;46.76;99758.56;5030908;28;46144;-72
2022/11/18 02:41:55;;;;;;;;;0.00;0.00;;;;;21.02;47.03;99760.47;5037211;28;45352;-71
2022/11/18 02:44:24;;;;;;;;;0.00;0.00;;;;;21.02;47.11;99762.28;5038507;28;45456;-71
2022/11/18 02:46:55;;;;;;;;;0.00;0.00;;;;;21.03;47.06;99774.47;5036854;28;45542;-71
2022/11/18 02:49:32;;;;;;;;;0.00;0.00;;;;;21.02;47.27;99773.69;5036968;28;46317;-71
2022/11/18 02:51:59;;;;;;;;;0.00;0.00;;;;;21.02;46.65;99772.88;5037005;28;45399;-71
2022/11/18 02:54:27;;;;;;;;;0.00;0.00;;;;;21.02;47.08;99775.50;5037146;28;45438;-72
2022/11/18 02:56:54;;;;;;;;;0.00;0.00;;;;;20.94;47.33;99761.44;5036755;28;45382;-72
2022/11/18 02:59:19;;;;;;;;;0.00;0.00;;;;;21.03;47.24;99788.53;5036816;28;46323;-71
2022/11/18 03:01:45;;;;;;;;;0.00;0.00;;;;;21.01;46.74;99785.25;5036954;28;45358;-72
2022/11/18 03:04:13;;;;;;;;;0.00;0.00;;;;;21.03;46.89;99787.69;5032789;28;45355;-71
2022/11/18 03:06:41;;;;;;;;;0.00;0.00;;;;;21.02;46.89;99784.25;5029108;28;45311;-71
2022/11/18 03:09:31;;;;;;;;;0.00;0.00;;;;;21.02;46.91;99794.03;5036770;28;45432;-71
2022/11/18 03:12:15;;;;;;;;;0.00;0.00;;;;;21.02;46.82;99801.94;5037194;28;45420;-70
2022/11/18 03:15:17;;;;;;;;;0.33;0.00;;;;;21.01;46.71;99795.00;5037252;28;45308;-72
2022/11/18 03:17:51;;;;;;;;;0.00;0.00;;;;;21.01;46.92;99805.56;5036741;28;45334;-71
2022/11/18 03:20:29;;;;;;;;;0.00;0.00;;;;;21.01;47.34;99795.00;5036588;28;47387;-72
2022/11/18 03:23:13;;;;;;;;;0.00;0.00;;;;;21.02;46.88;99791.38;5036408;28;45391;-70
2022/11/18 03:25:44;;;;;;;;;0.00;0.00;;;;;21.02;46.96;99800.13;5037206;28;45382;-72
2022/11/18 03:28:17;;;;;;;;;0.00;0.00;;;;;21.00;46.82;99802.09;5037054;28;45394;-71
2022/11/18 03:30:55;;;;;;;;;0.00;0.00;;;;;21.00;47.09;99801.31;5036393;28;46985;-71
2022/11/18 03:33:27;;;;;;;;;0.00;0.00;;;;;21.00;46.86;99796.81;5036553;28;45358;-70
2022/11/18 03:35:53;;;;;;;;;0.00;0.00;;;;;20.94;47.16;99795.81;5036871;28;46126;-72
2022/11/18 03:38:32;;;;;;;;;0.00;0.00;;;;;21.00;47.21;99803.97;5036641;28;45525;-72
2022/11/18 03:41:02;;;;;;;;;0.00;0.00;;;;;20.94;47.31;99800.28;5036277;28;47592;-70
2022/11/18 03:43:35;;;;;;;;;0.00;0.00;;;;;21.00;47.19;99814.53;5036359;28;45387;-71
2022/11/18 03:46:13;;;;;;;;;2.33;0.00;;;;;21.01;46.93;99818.78;5036252;28;45449;-71
2022/11/18 03:48:49;;;;;;;;;0.00;0.00;;;;;20.96;46.74;99814.09;5036887;28;45351;-71
2022/11/18 03:51:20;;;;;;;;;0.00;0.00;;;;;20.99;46.79;99821.66;5036199;28;46373;-71
2022/11/18 03:53:55;;;;;;;;;0.00;0.00;;;;;21.00;47.05;99827.75;5030112;28;45439;-71
2022/11/18 03:56:27;;;;;;;;;0.00;0.00;;;;;20.99;47.08;99834.88;5030276;28;45310;-71
2022/11/18 03:59:02;;;;;;;;;0.00;0.00;;;;;20.99;47.06;99834.03;5036220;28;45422;-71
2022/11/18 04:01:36;;;;;;;;;0.00;0.00;;;;;20.99;47.03;99842.81;5036269;28;46170;-70
2022/11/18 04:04:02;;;;;;;;;0.00;0.00;;;;;20.96;47.10;99836.09;5032979;28;45528;-69
2022/11/18 04:06:38;;;;;;;;;0.33;0.33;;;;;20.88;46.93;99822.19;5024759;28;45368;-72
2022/11/18 04:09:10;;;;;;;;;1.00;0.00;;;;;20.98;47.32;99837.69;5036085;28;45513;-71
2022/11/18 04:12:01;;;;;;;;;0.00;0.00;;;;;20.98;46.99;99846.44;5018319;28;48775;-71
2022/11/18 04:14:28;;;;;;;;;0.00;0.00;;;;;20.92;46.64;99845.41;5035393;28;45335;-72
2022/11/18 04:16:54;;;;;;;;;0.00;0.00;;;;;20.89;46.94;99840.53;5017754;28;45458;-72
2022/11/18 04:19:20;;;;;;;;;0.00;0.00;;;;;20.94;46.74;99856.63;5035982;28;45467;-69
2022/11/18 04:21:48;;;;;;;;;0.00;0.00;;;;;20.96;46.64;99856.41;5035749;28;46047;-72
2022/11/18 04:24:14;;;;;;;;;0.00;0.00;;;;;20.85;46.80;99842.75;5035714;28;45412;-70
2022/11/18 04:26:39;;;;;;;;;0.00;0.00;;;;;20.96;47.10;99870.47;5018289;28;45490;-72
2022/11/18 04:29:05;;;;;;;;;0.00;0.00;;;;;20.89;47.26;99860.88;5035568;28;45270;-71
2022/11/18 04:31:30;;;;;;;;;0.00;0.00;;;;;20.95;47.11;99883.84;5021559;28;45361;-71
2022/11/18 04:33:55;;;;;;;;;0.00;0.00;;;;;20.95;47.03;99876.75;5035569;28;45403;-71
2022/11/18 04:36:21;;;;;;;;;0.00;0.00;;;;;20.97;47.04;99884.50;5035678;28;45430;-71
2022/11/18 04:38:46;;;;;;;;;0.00;0.00;;;;;20.95;46.98;99875.94;5036041;28;45479;-71
2022/11/18 04:41:11;;;;;;;;;0.00;0.00;;;;;20.98;47.12;99885.28;5035665;28;45445;-71
2022/11/18 04:43:36;;;;;;;;;0.00;0.00;;;;;20.96;46.70;99891.59;5035407;28;45282;-71
2022/11/18 04:46:02;;;;;;;;;0.00;0.00;;;;;20.96;47.05;99894.25;5035646;28;45331;-70
2022/11/18 04:48:27;;;;;;;;;1.00;0.00;;;;;20.99;46.64;99900.97;5015910;28;45407;-70
2022/11/18 04:50:56;;;;;;;;;0.00;0.00;;;;;20.98;46.84;99907.28;5005868;28;46858;-72
2022/11/18 04:53:21;;;;;;;;;0.00;0.00;;;;;20.98;47.02;99909.91;5035289;28;45342;-70
2022/11/18 04:55:46;;;;;;;;;0.00;0.00;;;;;20.98;47.09;99904.63;5017736;28;45438;-69
2022/11/18 04:58:12;;;;;;;;;0.00;0.00;;;;;20.97;46.96;99905.66;5016917;28;45478;-71
2022/11/18 05:00:37;;;;;;;;;0.00;0.00;;;;;20.98;46.84;99911.75;5035327;28;46158;-71
2022/11/18 05:03:02;;;;;;;;;0.00;0.00;;;;;20.99;47.18;99918.66;5035555;28;45466;-71
2022/11/18 05:05:27;;;;;;;;;0.67;0.00;;;;;20.90;47.09;99899.50;5021474;28;45434;-71
2022/11/18 05:07:53;;;;;;;;;1.00;0.00;;;;;20.98;46.91;99906.44;5017677;28;45377;-71
2022/11/18 05:10:18;;;;;;;;;0.67;0.00;;;;;20.99;47.04;99910.75;5035319;28;49076;-71
2022/11/18 05:12:49;;;;;;;;;0.00;0.00;;;;;20.97;47.18;99918.88;5034969;28;47414;-70
2022/11/18 05:15:16;;;;;;;;;0.00;0.00;;;;;20.99;46.78;99916.03;5040949;28;45276;-71
2022/11/18 05:17:42;;;;;;;;;0.00;0.00;;;;;20.94;46.81;99911.31;5040612;28;45559;-71
2022/11/18 05:20:08;;;;;;;;;0.00;0.00;;;;;20.97;46.96;99916.22;5038656;28;45509;-71
2022/11/18 05:22:33;;;;;;;;;0.00;0.00;;;;;20.98;46.76;99917.03;5038277;28;45440;-71
2022/11/18 05:24:59;;;;;;;;;0.00;0.00;;;;;20.98;46.85;99919.66;5038820;28;45437;-71
2022/11/18 05:27:24;;;;;;;;;0.00;0.00;;;;;20.87;46.92;99900.69;5038601;28;45278;-70
2022/11/18 05:29:50;;;;;;;;;0.00;0.00;;;;;20.89;46.71;99911.09;5038364;28;47098;-71
2022/11/18 05:32:15;;;;;;;;;0.00;0.00;;;;;20.97;47.07;99929.47;5038427;28;45418;-71
2022/11/18 05:34:41;;;;;;;;;0.00;0.00;;;;;20.87;46.78;99913.13;5038552;28;45465;-72
2022/11/18 05:37:06;;;;;;;;;0.00;0.00;;;;;20.91;46.66;99917.00;5038683;28;45553;-71
2022/11/18 05:39:32;;;;;;;;;0.33;0.00;;;;;20.96;46.88;99931.28;5020103;28;45937;-71
2022/11/18 05:44:42;;;;;;;;;0.00;0.00;;;;;20.95;46.95;99932.28;5038523;28;45407;-71
2022/11/18 05:47:07;;;;;;;;;0.00;0.00;;;;;20.90;46.74;99929.41;5038510;28;45825;-72
2022/11/18 05:49:33;;;;;;;;;1.33;0.00;;;;;20.95;47.13;99936.75;5038376;28;47033;-71
2022/11/18 05:51:58;;;;;;;;;0.00;0.00;;;;;20.95;46.97;99942.03;5020150;28;45368;-71
2022/11/18 05:54:24;;;;;;;;;0.00;0.00;;;;;20.95;46.81;99937.56;5038037;28;45336;-71
2022/11/18 05:56:49;;;;;;;;;0.00;0.00;;;;;20.89;47.16;99935.72;5038094;28;45402;-71
2022/11/18 05:59:15;;;;;;;;;0.00;0.00;;;;;20.95;47.02;99947.31;5037891;28;46142;-71
2022/11/18 06:02:04;;;;;;;;;2.00;1.00;;;;;20.94;46.59;99951.00;5038290;28;45371;-71
2022/11/18 06:04:43;;;;;;;;;0.00;0.00;;;;;20.82;46.68;99935.66;5020250;28;45398;-72
2022/11/18 06:07:21;;;;;;;;;0.00;0.00;;;;;20.92;46.90;99955.66;5038032;28;45426;-72
2022/11/18 06:09:51;;;;;;;;;0.00;0.00;;;;;20.92;46.89;99953.81;5019880;28;48316;-72
2022/11/18 06:12:22;;;;;;;;;0.00;0.00;;;;;20.83;46.95;99949.69;5037939;28;45314;-71
2022/11/18 06:14:53;;;;;;;;;0.00;0.00;;;;;20.85;47.13;99951.13;5037656;28;45453;-71
2022/11/18 06:17:24;;;;;;;;;0.00;0.00;;;;;20.93;47.03;99963.41;5037864;28;45322;-72
2022/11/18 06:19:50;;;;;;;;;0.00;0.00;;;;;20.94;46.74;99972.97;5024679;28;47493;-71
2022/11/18 06:22:15;;;;;;;;;0.00;0.00;;;;;20.84;47.02;99956.63;5037874;28;45433;-71
2022/11/18 06:24:43;;;;;;;;;0.00;0.00;;;;;20.88;46.53;99959.69;5038570;28;45513;-71
2022/11/18 06:27:08;;;;;;;;;0.00;0.00;;;;;20.95;47.00;99971.94;5038128;28;45407;-71
2022/11/18 06:29:34;;;;;;;;;0.00;0.00;;;;;20.95;46.72;99974.59;5037023;28;46241;-71
2022/11/18 06:31:59;;;;;;;;;0.00;0.00;;;;;20.91;46.90;99976.00;5037727;28;45338;-71
2022/11/18 06:34:24;;;;;;;;;0.00;0.00;;;;;20.95;46.80;99992.28;5037625;28;45356;-71
2022/11/18 06:36:49;;;;;;;;;0.00;0.00;;;;;20.96;47.02;99991.28;5037837;28;45443;-71
2022/11/18 06:39:15;;;;;;;;;0.00;0.00;;;;;20.97;46.94;99995.56;5037221;28;47206;-71
2022/11/18 06:41:40;;;;;;;;;0.00;0.00;;;;;20.96;46.69;99994.75;5037648;28;45309;-71
2022/11/18 06:44:05;;;;;;;;;0.00;0.00;;;;;20.97;46.70;99998.22;5037918;28;45391;-71
2022/11/18 06:49:15;;;;;;;;;0.00;0.00;;;;;20.98;46.52;100009.56;5037412;28;45304;-71
2022/11/18 06:51:40;;;;;;;;;0.00;0.00;;;;;20.96;46.92;100023.00;5037078;28;53592;-71
2022/11/18 06:54:06;;;;;;;;;0.00;0.00;;;;;20.97;46.71;100022.00;5037013;28;45619;-71
2022/11/18 06:56:31;;;;;;;;;0.00;0.00;;;;;20.96;46.73;100025.66;5037167;28;45416;-72
2022/11/18 06:58:57;;;;;;;;;1.00;0.00;;;;;20.96;46.87;100031.75;5037093;28;46712;-72
2022/11/18 07:01:26;;;;;;;;;0.00;0.00;;;;;20.96;46.50;100036.22;5037486;28;45387;-71
2022/11/18 07:03:51;;;;;;;;;0.67;0.67;;;;;20.94;46.99;100040.91;5035260;28;45414;-71
2022/11/18 07:06:20;;;;;;;;;1.00;0.00;;;;;20.96;46.86;100057.38;5024845;28;45399;-71
2022/11/18 07:08:46;;;;;;;;;0.00;0.00;;;;;20.95;46.96;100056.56;5036722;28;46400;-71
2022/11/18 07:11:14;;;;;;;;;0.00;0.00;;;;;20.90;46.86;100047.56;5036831;28;45270;-72
2022/11/18 07:13:40;;;;;;;;;0.00;0.00;;;;;20.88;46.75;100046.94;5037241;28;45298;-71
2022/11/18 07:16:09;;;;;;;;;0.00;0.00;;;;;20.90;46.38;100051.03;5036639;28;45389;-71
2022/11/18 07:18:37;;;;;;;;;0.00;0.00;;;;;20.93;47.13;100052.47;5028057;28;48493;-71
2022/11/18 07:21:04;;;;;;;;;0.00;0.00;;;;;20.95;46.51;100059.22;5036974;28;45362;-71
2022/11/18 07:23:31;;;;;;;;;0.00;0.00;;;;;20.92;47.13;100064.06;5036468;28;45462;-71
2022/11/18 07:25:57;;;;;;;;;0.00;0.00;;;;;20.92;46.39;100064.06;5036767;28;45393;-71
2022/11/18 07:28:22;;;;;;;;;0.00;0.00;;;;;20.95;46.65;100072.44;5036772;28;47093;-71
2022/11/18 07:30:48;;;;;;;;;1.00;0.00;;;;;20.94;46.90;100076.09;5036911;28;45310;-71
2022/11/18 07:33:13;;;;;;;;;0.00;0.00;;;;;20.84;46.97;100068.47;5036684;28;45360;-72
2022/11/18 07:35:38;;;;;;;;;0.00;0.00;;;;;20.94;46.54;100084.03;5036839;28;45348;-71
2022/11/18 07:38:03;;;;;;;;;2.00;0.00;;;;;20.95;46.82;100093.59;5035935;28;51961;-71
2022/11/18 07:40:29;;;;;;;;;0.00;0.00;;;;;20.92;46.69;100093.16;5035670;28;45347;-72
2022/11/18 07:42:54;;;;;;;;;0.00;0.00;;;;;20.92;46.74;100095.81;5036772;28;45314;-72
2022/11/18 07:45:19;;;;;;;;;0.00;0.00;;;;;20.92;47.11;100093.16;5036765;28;45284;-72
2022/11/18 07:47:45;;;;;;;;;0.00;0.00;;;;;20.92;47.07;100099.25;5036379;28;45359;-72
2022/11/18 07:50:10;;;;;;;;;0.00;0.00;;;;;20.89;47.34;100102.28;5036171;28;51657;-73
2022/11/18 07:52:35;;;;;;;;;2.00;0.00;;;;;20.95;47.36;100113.91;5035953;28;45279;-72
2022/11/18 07:55:01;;;;;;;;;2.00;0.00;;;;;20.89;47.80;100106.75;5036189;28;45398;-72
2022/11/18 07:57:26;;;;;;;;;0.00;0.00;;;;;20.96;47.87;100115.56;5036238;28;46054;-73
2022/11/18 07:59:51;;;;;;;;;0.00;0.00;;;;;20.90;48.24;100113.66;5036220;28;45319;-73
2022/11/18 08:02:17;;;;;;;;;0.67;0.00;;;;;20.99;47.81;100125.78;5036441;28;45471;-72
2022/11/18 08:04:42;;;;;;;;;0.00;0.00;;;;;21.01;48.40;100125.56;5033349;28;45829;-72
2022/11/18 08:07:09;;;;;;;;;0.00;0.00;;;;;21.00;48.41;100127.38;5034575;28;46974;-72
2022/11/18 08:09:34;;;;;;;;;0.33;0.33;;;;;20.94;48.09;100117.59;5036079;28;45431;-72
2022/11/18 08:11:59;;;;;;;;;0.00;0.00;;;;;21.02;48.27;100132.53;5017863;28;45359;-72
2022/11/18 08:14:27;;;;;;;;;0.00;0.00;;;;;21.00;48.34;100130.03;5020566;28;45426;-72
2022/11/18 08:16:54;;;;;;;;;0.00;0.00;;;;;21.03;47.68;100139.44;5035594;28;47202;-72
2022/11/18 08:19:19;;;;;;;;;0.00;0.00;;;;;21.03;47.88;100142.91;5034851;28;45379;-72
2022/11/18 08:21:45;;;;;;;;;0.00;0.00;;;;;21.00;48.06;100143.25;5035812;28;45456;-72
2022/11/18 08:24:10;;;;;;;;;0.00;0.00;;;;;21.03;48.09;100156.13;5035962;28;45627;-72
2022/11/18 08:26:35;;;;;;;;;0.00;0.00;;;;;21.03;47.96;100147.38;5015316;28;47340;-72
2022/11/18 08:29:01;;;;;;;;;0.00;0.00;;;;;20.92;48.10;100140.75;5015687;28;45397;-72
2022/11/18 08:31:29;;;;;;;;;0.00;0.00;;;;;20.99;47.83;100165.44;5023494;28;45455;-72
2022/11/18 08:34:06;;;;;;;;;0.00;0.00;;;;;21.01;48.03;100178.47;5019175;28;45815;-72
2022/11/18 08:36:34;;;;;;;;;1.00;0.00;;;;;21.01;47.94;100175.81;5018478;28;46338;-72
2022/11/18 08:39:03;;;;;;;;;1.00;0.00;;;;;20.99;48.01;100170.72;5015588;28;45306;-72
2022/11/18 08:41:32;;;;;;;;;0.00;0.00;;;;;20.99;48.11;100183.94;5022407;28;45395;-72
2022/11/18 08:43:57;;;;;;;;;0.33;0.00;;;;;20.99;48.36;100183.13;5015547;28;45444;-72
2022/11/18 08:46:22;;;;;;;;;1.00;0.00;;;;;21.00;47.98;100182.91;5015373;28;45368;-72
2022/11/18 08:48:48;;;;;;;;;0.00;0.00;;;;;20.99;48.42;100183.94;5019985;28;45490;-73
2022/11/18 08:51:14;;;;;;;;;0.00;0.00;;;;;20.92;48.36;100173.28;5015164;28;45239;-72
2022/11/18 08:53:39;;;;;;;;;0.00;0.00;;;;;20.94;48.02;100175.75;5020866;28;45495;-73
2022/11/18 08:56:05;;;;;;;;;0.00;0.00;;;;;20.88;48.11;100161.47;5019568;28;47364;-73
2022/11/18 08:58:30;;;;;;;;;0.00;0.00;;;;;20.98;48.10;100184.94;5016068;28;45356;-72
2022/11/18 09:00:56;;;;;;;;;0.00;0.00;;;;;20.99;48.32;100194.53;5019494;28;45398;-72
2022/11/18 09:03:22;;;;;;;;;0.00;0.00;;;;;20.99;48.21;100193.69;5014944;28;45411;-72
2022/11/18 09:05:47;;;;;;;;;1.00;0.00;;;;;21.00;47.85;100187.41;5018768;28;45501;-72
2022/11/18 09:08:14;;;;;;;;;0.00;0.00;;;;;21.00;48.00;100180.28;5035016;28;45300;-72
2022/11/18 09:10:39;;;;;;;;;0.00;0.00;;;;;20.98;48.20;100177.00;5035329;28;45386;-72
2022/11/18 09:13:05;;;;;;;;;0.00;0.00;;;;;20.98;48.12;100182.28;5035480;28;45336;-72
2022/11/18 09:15:30;;;;;;;;;0.00;0.00;;;;;20.99;48.60;100188.41;5035094;28;45329;-72
2022/11/18 09:17:56;;;;;;;;;0.00;0.00;;;;;20.90;48.10;100172.66;5033983;28;50651;-72
2022/11/18 09:20:22;;;;;;;;;0.00;0.00;;;;;21.00;48.06;100190.84;5035504;28;45266;-72
2022/11/18 09:22:47;;;;;;;;;0.00;0.00;;;;;20.98;48.02;100190.22;5034735;28;45457;-72
2022/11/18 09:25:13;;;;;;;;;0.00;0.00;;;;;20.97;47.89;100180.69;5034656;28;45936;-72
2022/11/18 09:27:38;;;;;;;;;0.00;0.00;;;;;20.93;48.23;100174.13;5035200;28;45292;-72
2022/11/18 09:30:05;;;;;;;;;1.33;0.00;;;;;20.96;48.00;100181.69;5035440;28;45364;-72
2022/11/18 09:32:32;;;;;;;;;0.33;0.33;;;;;21.04;48.37;100193.97;5034493;28;45483;-72
2022/11/18 09:34:57;;;;;;;;;0.00;0.00;;;;;21.04;48.26;100199.28;5013046;28;48445;-72
2022/11/18 09:37:23;;;;;;;;;0.00;0.00;;;;;21.03;48.32;100208.19;5025972;28;45426;-72
2022/11/18 09:39:48;;;;;;;;;0.67;0.00;;;;;21.03;48.62;100205.56;5035032;28;45713;-72
2022/11/18 09:42:46;;;;;;;;;0.00;0.00;;;;;21.03;48.40;100209.03;5034892;28;45581;-72
2022/11/18 09:45:33;;;;;;;;;1.00;0.00;;;;;21.02;48.09;100204.75;5034653;28;46591;-72
2022/11/18 09:48:18;;;;;;;;;0.33;0.00;;;;;20.92;48.49;100197.09;5034290;28;45533;-72
2022/11/18 09:50:44;;;;;;;;;0.00;0.00;;;;;21.02;48.16;100203.94;5034940;28;45403;-72
2022/11/18 09:53:18;;;;;;;;;2.00;0.00;;;;;21.02;48.23;100211.88;5034559;28;45550;-72
2022/11/18 09:55:45;;;;;;;;;0.00;0.00;;;;;20.99;48.28;100212.22;5034637;28;45283;-72
2022/11/18 09:58:36;;;;;;;;;0.00;0.00;;;;;21.01;48.52;100218.97;5034280;28;45315;-72
2022/11/18 10:01:03;;;;;;;;;0.00;0.00;;;;;21.01;48.46;100215.47;5024279;28;45347;-72
2022/11/18 10:03:30;;;;;;;;;0.00;0.00;;;;;20.94;48.56;100210.97;5035298;28;45361;-72
2022/11/18 10:06:08;;;;;;;;;0.00;0.00;;;;;21.01;48.56;100223.41;5023582;28;46161;-72
2022/11/18 10:08:57;;;;;;;;;1.67;0.00;;;;;21.02;48.36;100235.69;5037233;28;45374;-72
2022/11/18 10:11:25;;;;;;;;;0.33;0.00;;;;;21.02;48.50;100241.78;5037765;28;45367;-72
2022/11/18 10:14:16;;;;;;;;;0.00;0.00;;;;;21.02;48.51;100239.16;5037719;28;45515;-72
2022/11/18 10:17:07;;;;;;;;;0.00;0.00;;;;;21.02;48.30;100231.22;5037153;28;46073;-72
2022/11/18 10:19:55;;;;;;;;;0.00;0.00;;;;;21.03;48.58;100239.94;4995087;28;45698;-72
2022/11/18 10:22:33;;;;;;;;;1.00;0.00;;;;;21.03;48.40;100242.59;4995787;28;45481;-72
2022/11/18 10:24:59;;;;;;;;;0.00;0.00;;;;;21.04;48.10;100237.13;4995250;28;45415;-72
2022/11/18 10:27:40;;;;;;;;;0.00;0.00;;;;;21.03;48.03;100240.78;4995328;28;46261;-72
2022/11/18 10:30:23;;;;;;;;;0.00;0.00;;;;;21.03;48.21;100239.94;4995280;28;45453;-72
2022/11/18 10:32:57;;;;;;;;;2.00;0.00;;;;;21.04;48.43;100241.59;4995317;28;45403;-72
2022/11/18 10:35:30;;;;;;;;;0.00;0.00;;;;;21.04;48.31;100249.53;4995241;28;45487;-72
2022/11/18 10:38:15;;;;;;;;;0.00;0.00;;;;;21.04;48.08;100246.88;4995164;28;47118;-72
2022/11/18 10:41:00;;;;;;;;;0.00;0.00;;;;;20.96;48.17;100229.28;4995309;28;45427;-72
2022/11/18 10:43:51;;;;;;;;;1.00;0.00;;;;;21.05;48.44;100253.81;4995231;28;45343;-72
2022/11/18 10:46:18;;;;;;;;;0.00;0.00;;;;;21.04;48.42;100241.59;4994930;28;45547;-72
2022/11/18 10:48:43;;;;;;;;;0.00;0.00;;;;;20.99;48.71;100238.66;4995168;28;47176;-72
2022/11/18 10:51:21;;;;;;;;;0.00;0.00;;;;;21.04;48.81;100255.63;4995386;28;45353;-72
2022/11/18 10:53:46;;;;;;;;;0.00;0.00;;;;;20.94;48.44;100241.88;4995352;28;45912;-72
2022/11/18 10:56:14;;;;;;;;;0.00;0.00;;;;;21.06;48.61;100256.25;5008357;28;45382;-72
2022/11/18 10:58:42;;;;;;;;;0.00;0.00;;;;;21.05;48.16;100262.56;5015414;28;46077;-72
2022/11/18 11:01:23;;;;;;;;;0.00;0.00;;;;;21.04;48.20;100260.94;5027637;28;45382;-72
2022/11/18 11:04:18;;;;;;;;;0.00;0.00;;;;;21.10;48.51;100271.75;5036022;28;46268;-72
2022/11/18 11:06:44;;;;;;;;;0.00;0.00;;;;;21.10;48.47;100274.41;5019762;28;45445;-72
2022/11/18 11:09:29;;;;;;;;;0.00;0.00;;;;;20.99;48.42;100254.53;5036453;28;47218;-72
2022/11/18 11:11:55;;;;;;;;;0.00;0.00;;;;;21.12;48.63;100269.75;5036560;28;45473;-72
2022/11/18 11:14:57;;;;;;;;;0.00;0.00;;;;;21.12;48.44;100267.09;5036519;28;45334;-72
2022/11/18 11:17:41;;;;;;;;;0.00;0.00;;;;;21.12;48.17;100267.94;5032124;28;45499;-73
2022/11/18 11:20:15;;;;;;;;;0.00;0.00;;;;;21.13;48.19;100268.75;5036644;28;46387;-73
2022/11/18 11:22:41;;;;;;;;;0.00;0.00;;;;;21.14;48.55;100275.66;5036837;28;45346;-72
2022/11/18 11:25:22;;;;;;;;;0.00;0.00;;;;;21.14;48.54;100270.38;5036831;28;45434;-72
2022/11/18 11:27:48;;;;;;;;;0.00;0.00;;;;;21.13;48.16;100269.53;5036255;28;45411;-72
2022/11/18 11:30:19;;;;;;;;;0.00;0.00;;;;;21.13;48.22;100269.53;5036817;28;45977;-71
2022/11/18 11:33:26;;;;;;;;;1.00;1.00;;;;;21.14;48.42;100280.94;5036491;28;45453;-72
2022/11/18 11:36:45;;;;;;;;;0.00;0.00;;;;;21.14;48.46;100284.44;5026012;28;45382;-72
2022/11/18 11:39:36;;;;;;;;;0.00;0.00;;;;;21.05;48.37;100269.69;4975008;28;45456;-72
2022/11/18 11:42:32;;;;;;;;;0.00;0.00;;;;;21.04;48.50;100265.41;4952153;28;47171;-72
2022/11/18 11:45:18;;;;;;;;;0.00;0.00;;;;;21.12;48.25;100281.16;4974368;28;45479;-72
2022/11/18 11:48:02;;;;;;;;;0.33;0.33;;;;;21.14;48.06;100288.88;4974672;28;45403;-72
2022/11/18 11:50:52;;;;;;;;;0.00;0.00;;;;;21.14;48.52;100287.06;4968057;28;45539;-72
2022/11/18 11:53:35;;;;;;;;;0.00;0.00;;;;;21.13;48.63;100298.66;4970824;28;47186;-72
2022/11/18 11:56:14;;;;;;;;;0.00;0.00;;;;;21.03;48.37;100296.31;4973569;28;45488;-72